Аэропорт: Уфа. Уфа

ICAO: UWUU

METAR:
2019/03/26 13:00
UWUU 261300Z 23005MPS 9999 SCT030 04/M03 Q1016 R14R/0///60 NOSIG RMK QFE752/1003
METAR:
2019/03/26 12:21
TAF TAF UWUU 261057Z 2612/2712 22007G13MPS 9999 BKN030CB 
      TEMPO 2612/2615 24009G15MPS 
      TEMPO 2621/2712 19006G12MPS 3100 -SNRA OVC011